sensor_id;sensor_type;location;lat;lon;timestamp;pressure;altitude;pressure_sealevel;temperature;humidity
4586;BME280;2305;50.118;8.952;2023-04-02T00:00:17;99696.59;;;11.05;100.00
4586;BME280;2305;50.118;8.952;2023-04-02T00:02:54;99696.06;;;11.02;100.00
4586;BME280;2305;50.118;8.952;2023-04-02T00:05:44;99704.78;;;11.02;100.00
4586;BME280;2305;50.118;8.952;2023-04-02T00:08:27;99700.19;;;11.04;100.00
4586;BME280;2305;50.118;8.952;2023-04-02T00:11:01;99705.75;;;11.01;100.00
4586;BME280;2305;50.118;8.952;2023-04-02T00:13:32;99710.72;;;11.04;100.00
4586;BME280;2305;50.118;8.952;2023-04-02T00:16:05;99715.06;;;11.05;100.00
4586;BME280;2305;50.118;8.952;2023-04-02T00:18:39;99715.88;;;11.06;100.00
4586;BME280;2305;50.118;8.952;2023-04-02T00:21:12;99721.97;;;11.06;100.00
4586;BME280;2305;50.118;8.952;2023-04-02T00:23:43;99722.78;;;11.07;100.00
4586;BME280;2305;50.118;8.952;2023-04-02T00:26:27;99724.22;;;11.01;100.00
4586;BME280;2305;50.118;8.952;2023-04-02T00:28:59;99733.09;;;11.00;100.00
4586;BME280;2305;50.118;8.952;2023-04-02T00:31:28;99730.59;;;10.99;100.00
4586;BME280;2305;50.118;8.952;2023-04-02T00:33:59;99735.72;;;11.00;100.00
4586;BME280;2305;50.118;8.952;2023-04-02T00:36:33;99749.88;;;10.99;100.00
4586;BME280;2305;50.118;8.952;2023-04-02T00:39:06;99743.22;;;10.95;100.00
4586;BME280;2305;50.118;8.952;2023-04-02T00:41:40;99744.19;;;10.94;100.00
4586;BME280;2305;50.118;8.952;2023-04-02T00:44:16;99749.06;;;10.89;100.00
4586;BME280;2305;50.118;8.952;2023-04-02T00:46:49;99745.19;;;10.93;100.00
4586;BME280;2305;50.118;8.952;2023-04-02T00:49:22;99749.34;;;10.96;100.00
4586;BME280;2305;50.118;8.952;2023-04-02T00:51:56;99744.88;;;10.96;100.00
4586;BME280;2305;50.118;8.952;2023-04-02T00:54:27;99753.09;;;10.93;100.00
4586;BME280;2305;50.118;8.952;2023-04-02T00:57:02;99755.31;;;10.88;100.00
4586;BME280;2305;50.118;8.952;2023-04-02T00:59:33;99763.09;;;10.80;100.00
4586;BME280;2305;50.118;8.952;2023-04-02T01:02:22;99760.44;;;10.71;100.00
4586;BME280;2305;50.118;8.952;2023-04-02T01:04:57;99761.84;;;10.75;100.00
4586;BME280;2305;50.118;8.952;2023-04-02T01:07:49;99763.78;;;10.63;100.00
4586;BME280;2305;50.118;8.952;2023-04-02T01:10:35;99769.63;;;10.67;100.00
4586;BME280;2305;50.118;8.952;2023-04-02T01:13:16;99765.47;;;10.64;100.00
4586;BME280;2305;50.118;8.952;2023-04-02T01:15:53;99767.66;;;10.69;100.00
4586;BME280;2305;50.118;8.952;2023-04-02T01:18:34;99766.81;;;10.68;100.00
4586;BME280;2305;50.118;8.952;2023-04-02T01:21:13;99766.13;;;10.66;100.00
4586;BME280;2305;50.118;8.952;2023-04-02T01:23:59;99776.41;;;10.69;100.00
4586;BME280;2305;50.118;8.952;2023-04-02T01:26:50;99773.91;;;10.68;100.00
4586;BME280;2305;50.118;8.952;2023-04-02T01:29:24;99779.72;;;10.71;100.00
4586;BME280;2305;50.118;8.952;2023-04-02T01:32:01;99787.50;;;10.73;100.00
4586;BME280;2305;50.118;8.952;2023-04-02T01:34:32;99781.25;;;10.74;100.00
4586;BME280;2305;50.118;8.952;2023-04-02T01:37:22;99789.00;;;10.75;100.00
4586;BME280;2305;50.118;8.952;2023-04-02T01:40:04;99783.59;;;10.77;100.00
4586;BME280;2305;50.118;8.952;2023-04-02T01:42:41;99788.63;;;10.80;100.00
4586;BME280;2305;50.118;8.952;2023-04-02T01:45:19;99795.38;;;10.82;100.00
4586;BME280;2305;50.118;8.952;2023-04-02T01:47:49;99799.72;;;10.83;100.00
4586;BME280;2305;50.118;8.952;2023-04-02T01:50:26;99806.09;;;10.81;100.00
4586;BME280;2305;50.118;8.952;2023-04-02T01:52:59;99805.66;;;10.76;100.00
4586;BME280;2305;50.118;8.952;2023-04-02T01:55:32;99806.50;;;10.76;100.00
4586;BME280;2305;50.118;8.952;2023-04-02T01:58:03;99810.94;;;10.76;100.00
4586;BME280;2305;50.118;8.952;2023-04-02T02:00:35;99811.63;;;10.78;100.00
4586;BME280;2305;50.118;8.952;2023-04-02T02:03:05;99816.75;;;10.79;100.00
4586;BME280;2305;50.118;8.952;2023-04-02T02:05:36;99815.91;;;10.79;100.00
4586;BME280;2305;50.118;8.952;2023-04-02T02:08:04;99814.97;;;10.80;100.00
4586;BME280;2305;50.118;8.952;2023-04-02T02:10:36;99816.88;;;10.78;100.00
4586;BME280;2305;50.118;8.952;2023-04-02T02:13:13;99822.03;;;10.79;100.00
4586;BME280;2305;50.118;8.952;2023-04-02T02:15:43;99819.25;;;10.81;100.00
4586;BME280;2305;50.118;8.952;2023-04-02T02:18:12;99823.56;;;10.82;100.00
4586;BME280;2305;50.118;8.952;2023-04-02T02:20:43;99825.34;;;10.81;100.00
4586;BME280;2305;50.118;8.952;2023-04-02T02:23:12;99833.25;;;10.81;100.00
4586;BME280;2305;50.118;8.952;2023-04-02T02:25:41;99835.06;;;10.81;100.00
4586;BME280;2305;50.118;8.952;2023-04-02T02:28:17;99829.50;;;10.74;100.00
4586;BME280;2305;50.118;8.952;2023-04-02T02:30:53;99838.13;;;10.76;100.00
4586;BME280;2305;50.118;8.952;2023-04-02T02:33:29;99843.66;;;10.73;100.00
4586;BME280;2305;50.118;8.952;2023-04-02T02:36:04;99849.78;;;10.74;100.00
4586;BME280;2305;50.118;8.952;2023-04-02T02:38:46;99856.69;;;10.75;100.00
4586;BME280;2305;50.118;8.952;2023-04-02T02:41:40;99850.59;;;10.74;100.00
4586;BME280;2305;50.118;8.952;2023-04-02T02:44:14;99857.81;;;10.72;100.00
4586;BME280;2305;50.118;8.952;2023-04-02T02:46:50;99865.84;;;10.71;100.00
4586;BME280;2305;50.118;8.952;2023-04-02T02:49:22;99861.28;;;10.73;100.00
4586;BME280;2305;50.118;8.952;2023-04-02T02:51:56;99870.00;;;10.73;100.00
4586;BME280;2305;50.118;8.952;2023-04-02T02:54:33;99870.84;;;10.74;100.00
4586;BME280;2305;50.118;8.952;2023-04-02T02:57:08;99867.25;;;10.75;100.00
4586;BME280;2305;50.118;8.952;2023-04-02T02:59:41;99873.50;;;10.74;100.00
4586;BME280;2305;50.118;8.952;2023-04-02T03:02:13;99880.97;;;10.69;100.00
4586;BME280;2305;50.118;8.952;2023-04-02T03:04:49;99882.63;;;10.70;100.00
4586;BME280;2305;50.118;8.952;2023-04-02T03:07:22;99880.84;;;10.70;100.00
4586;BME280;2305;50.118;8.952;2023-04-02T03:10:02;99885.13;;;10.71;100.00
4586;BME280;2305;50.118;8.952;2023-04-02T03:12:39;99883.47;;;10.70;100.00
4586;BME280;2305;50.118;8.952;2023-04-02T03:15:20;99895.78;;;10.70;100.00
4586;BME280;2305;50.118;8.952;2023-04-02T03:17:54;99898.56;;;10.68;100.00
4586;BME280;2305;50.118;8.952;2023-04-02T03:20:33;99900.25;;;10.69;100.00
4586;BME280;2305;50.118;8.952;2023-04-02T03:23:10;99903.00;;;10.68;100.00
4586;BME280;2305;50.118;8.952;2023-04-02T03:25:43;99910.22;;;10.66;100.00
4586;BME280;2305;50.118;8.952;2023-04-02T03:28:20;99911.03;;;10.66;100.00
4586;BME280;2305;50.118;8.952;2023-04-02T03:30:57;99912.88;;;10.66;100.00
4586;BME280;2305;50.118;8.952;2023-04-02T03:33:36;99914.66;;;10.65;100.00
4586;BME280;2305;50.118;8.952;2023-04-02T03:36:17;99926.03;;;10.66;100.00
4586;BME280;2305;50.118;8.952;2023-04-02T03:38:52;99927.94;;;10.64;100.00
4586;BME280;2305;50.118;8.952;2023-04-02T03:41:31;99935.03;;;10.63;100.00
4586;BME280;2305;50.118;8.952;2023-04-02T03:44:05;99938.50;;;10.64;100.00
4586;BME280;2305;50.118;8.952;2023-04-02T03:46:44;99940.16;;;10.65;100.00
4586;BME280;2305;50.118;8.952;2023-04-02T03:49:22;99936.81;;;10.63;100.00
4586;BME280;2305;50.118;8.952;2023-04-02T03:51:58;99941.00;;;10.65;100.00
4586;BME280;2305;50.118;8.952;2023-04-02T03:54:33;99949.88;;;10.64;100.00
4586;BME280;2305;50.118;8.952;2023-04-02T03:57:02;99947.38;;;10.63;100.00
4586;BME280;2305;50.118;8.952;2023-04-02T03:59:40;99954.28;;;10.64;100.00
4586;BME280;2305;50.118;8.952;2023-04-02T04:02:23;99957.91;;;10.63;100.00
4586;BME280;2305;50.118;8.952;2023-04-02T04:04:55;99966.66;;;10.63;100.00
4586;BME280;2305;50.118;8.952;2023-04-02T04:07:30;99971.19;;;10.61;100.00
4586;BME280;2305;50.118;8.952;2023-04-02T04:10:00;99976.63;;;10.60;100.00
4586;BME280;2305;50.118;8.952;2023-04-02T04:12:32;99969.53;;;10.60;100.00
4586;BME280;2305;50.118;8.952;2023-04-02T04:15:08;99972.75;;;10.64;100.00
4586;BME280;2305;50.118;8.952;2023-04-02T04:17:49;99980.81;;;10.62;100.00
4586;BME280;2305;50.118;8.952;2023-04-02T04:20:30;99990.38;;;10.63;100.00
4586;BME280;2305;50.118;8.952;2023-04-02T04:23:13;99984.94;;;10.65;100.00
4586;BME280;2305;50.118;8.952;2023-04-02T04:25:45;99986.75;;;10.64;100.00
4586;BME280;2305;50.118;8.952;2023-04-02T04:28:23;99991.91;;;10.66;100.00
4586;BME280;2305;50.118;8.952;2023-04-02T04:30:57;99999.81;;;10.66;100.00
4586;BME280;2305;50.118;8.952;2023-04-02T04:33:33;100002.44;;;10.66;100.00
4586;BME280;2305;50.118;8.952;2023-04-02T04:36:20;100001.47;;;10.67;100.00
4586;BME280;2305;50.118;8.952;2023-04-02T04:39:06;100011.16;;;10.66;100.00
4586;BME280;2305;50.118;8.952;2023-04-02T04:41:38;100012.00;;;10.67;100.00
4586;BME280;2305;50.118;8.952;2023-04-02T04:44:14;100019.91;;;10.67;100.00
4586;BME280;2305;50.118;8.952;2023-04-02T04:46:50;100020.59;;;10.69;100.00
4586;BME280;2305;50.118;8.952;2023-04-02T04:49:28;100019.75;;;10.68;100.00
4586;BME280;2305;50.118;8.952;2023-04-02T04:52:06;100028.63;;;10.67;100.00
4586;BME280;2305;50.118;8.952;2023-04-02T04:54:38;100033.09;;;10.67;100.00
4586;BME280;2305;50.118;8.952;2023-04-02T04:57:22;100038.19;;;10.68;100.00
4586;BME280;2305;50.118;8.952;2023-04-02T04:59:58;100046.09;;;10.68;100.00
4586;BME280;2305;50.118;8.952;2023-04-02T05:02:46;100042.78;;;10.66;100.00
4586;BME280;2305;50.118;8.952;2023-04-02T05:05:18;100050.56;;;10.68;100.00
4586;BME280;2305;50.118;8.952;2023-04-02T05:07:55;100054.97;;;10.67;100.00
4586;BME280;2305;50.118;8.952;2023-04-02T05:10:30;100051.66;;;10.65;100.00
4586;BME280;2305;50.118;8.952;2023-04-02T05:13:05;100060.53;;;10.64;100.00
4586;BME280;2305;50.118;8.952;2023-04-02T05:15:40;100060.41;;;10.66;100.00
4586;BME280;2305;50.118;8.952;2023-04-02T05:18:17;100071.53;;;10.69;100.00
4586;BME280;2305;50.118;8.952;2023-04-02T05:20:51;100075.81;;;10.70;100.00
4586;BME280;2305;50.118;8.952;2023-04-02T05:23:28;100079.16;;;10.72;100.00
4586;BME280;2305;50.118;8.952;2023-04-02T05:26:05;100079.16;;;10.72;100.00
4586;BME280;2305;50.118;8.952;2023-04-02T05:28:39;100086.09;;;10.73;100.00
4586;BME280;2305;50.118;8.952;2023-04-02T05:31:14;100088.72;;;10.73;100.00
4586;BME280;2305;50.118;8.952;2023-04-02T05:33:45;100092.03;;;10.75;100.00
4586;BME280;2305;50.118;8.952;2023-04-02T05:36:19;100096.38;;;10.76;100.00
4586;BME280;2305;50.118;8.952;2023-04-02T05:38:53;100097.75;;;10.80;100.00
4586;BME280;2305;50.118;8.952;2023-04-02T05:41:36;100101.09;;;10.82;100.00
4586;BME280;2305;50.118;8.952;2023-04-02T05:44:11;100104.69;;;10.81;100.00
4586;BME280;2305;50.118;8.952;2023-04-02T05:46:47;100101.94;;;10.83;100.00
4586;BME280;2305;50.118;8.952;2023-04-02T05:49:25;100112.88;;;10.78;100.00
4586;BME280;2305;50.118;8.952;2023-04-02T05:52:00;100124.81;;;10.82;100.00
4586;BME280;2305;50.118;8.952;2023-04-02T05:54:38;100124.56;;;10.85;100.00
4586;BME280;2305;50.118;8.952;2023-04-02T05:57:18;100126.13;;;10.88;100.00
4586;BME280;2305;50.118;8.952;2023-04-02T06:00:07;100131.09;;;10.91;100.00
4586;BME280;2305;50.118;8.952;2023-04-02T06:02:42;100131.69;;;10.94;100.00
4586;BME280;2305;50.118;8.952;2023-04-02T06:05:21;100135.28;;;10.93;100.00
4586;BME280;2305;50.118;8.952;2023-04-02T06:07:54;100141.94;;;10.97;100.00
4586;BME280;2305;50.118;8.952;2023-04-02T06:10:29;100146.97;;;11.00;100.00
4586;BME280;2305;50.118;8.952;2023-04-02T06:13:02;100146.00;;;11.01;100.00
4586;BME280;2305;50.118;8.952;2023-04-02T06:15:38;100157.97;;;11.05;100.00
4586;BME280;2305;50.118;8.952;2023-04-02T06:18:15;100160.59;;;11.05;100.00
4586;BME280;2305;50.118;8.952;2023-04-02T06:20:45;100168.75;;;11.02;100.00
4586;BME280;2305;50.118;8.952;2023-04-02T06:23:24;100169.56;;;10.93;100.00
4586;BME280;2305;50.118;8.952;2023-04-02T06:26:06;100174.63;;;10.65;100.00
4586;BME280;2305;50.118;8.952;2023-04-02T06:28:41;100183.66;;;10.62;100.00
4586;BME280;2305;50.118;8.952;2023-04-02T06:31:22;100188.72;;;10.54;100.00
4586;BME280;2305;50.118;8.952;2023-04-02T06:33:56;100200.47;;;10.50;100.00
4586;BME280;2305;50.118;8.952;2023-04-02T06:36:29;100204.09;;;10.49;100.00
4586;BME280;2305;50.118;8.952;2023-04-02T06:39:10;100203.25;;;10.49;100.00
4586;BME280;2305;50.118;8.952;2023-04-02T06:41:45;100214.63;;;10.49;100.00
4586;BME280;2305;50.118;8.952;2023-04-02T06:44:32;100219.81;;;10.40;100.00
4586;BME280;2305;50.118;8.952;2023-04-02T06:47:27;100223.03;;;10.43;100.00
4586;BME280;2305;50.118;8.952;2023-04-02T06:50:02;100234.84;;;10.49;100.00
4586;BME280;2305;50.118;8.952;2023-04-02T06:52:36;100239.03;;;10.51;100.00
4586;BME280;2305;50.118;8.952;2023-04-02T06:55:25;100232.88;;;10.41;100.00
4586;BME280;2305;50.118;8.952;2023-04-02T06:57:57;100242.81;;;10.38;100.00
4586;BME280;2305;50.118;8.952;2023-04-02T07:00:33;100248.09;;;10.38;100.00
4586;BME280;2305;50.118;8.952;2023-04-02T07:03:13;100249.97;;;10.47;100.00
4586;BME280;2305;50.118;8.952;2023-04-02T07:05:47;100261.06;;;10.50;100.00
4586;BME280;2305;50.118;8.952;2023-04-02T07:08:16;100262.03;;;10.49;100.00
4586;BME280;2305;50.118;8.952;2023-04-02T07:10:45;100270.97;;;10.58;100.00
4586;BME280;2305;50.118;8.952;2023-04-02T07:13:19;100281.19;;;10.51;100.00
4586;BME280;2305;50.118;8.952;2023-04-02T07:15:50;100281.50;;;10.58;100.00
4586;BME280;2305;50.118;8.952;2023-04-02T07:18:24;100288.59;;;10.57;100.00
4586;BME280;2305;50.118;8.952;2023-04-02T07:20:54;100291.94;;;10.59;100.00
4586;BME280;2305;50.118;8.952;2023-04-02T07:23:25;100294.09;;;10.54;100.00
4586;BME280;2305;50.118;8.952;2023-04-02T07:25:54;100301.28;;;10.52;100.00
4586;BME280;2305;50.118;8.952;2023-04-02T07:28:27;100308.97;;;10.44;100.00
4586;BME280;2305;50.118;8.952;2023-04-02T07:30:57;100317.75;;;10.45;100.00
4586;BME280;2305;50.118;8.952;2023-04-02T07:33:29;100321.06;;;10.47;100.00
4586;BME280;2305;50.118;8.952;2023-04-02T07:36:01;100324.31;;;10.39;100.00
4586;BME280;2305;50.118;8.952;2023-04-02T07:38:30;100329.97;;;10.35;100.00
4586;BME280;2305;50.118;8.952;2023-04-02T07:41:04;100342.44;;;10.22;100.00
4586;BME280;2305;50.118;8.952;2023-04-02T07:43:33;100348.31;;;10.14;100.00
4586;BME280;2305;50.118;8.952;2023-04-02T07:46:03;100358.72;;;10.05;100.00
4586;BME280;2305;50.118;8.952;2023-04-02T07:48:33;100361.09;;;9.97;100.00
4586;BME280;2305;50.118;8.952;2023-04-02T07:51:02;100370.81;;;10.07;100.00
4586;BME280;2305;50.118;8.952;2023-04-02T07:53:32;100374.66;;;10.14;100.00
4586;BME280;2305;50.118;8.952;2023-04-02T07:56:04;100374.88;;;10.11;100.00
4586;BME280;2305;50.118;8.952;2023-04-02T07:58:37;100377.50;;;10.11;100.00
4586;BME280;2305;50.118;8.952;2023-04-02T08:01:15;100383.13;;;10.18;100.00
4586;BME280;2305;50.118;8.952;2023-04-02T08:03:45;100392.97;;;10.16;100.00
4586;BME280;2305;50.118;8.952;2023-04-02T08:06:15;100404.81;;;10.21;100.00
4586;BME280;2305;50.118;8.952;2023-04-02T08:08:45;100408.75;;;10.27;100.00
4586;BME280;2305;50.118;8.952;2023-04-02T08:11:14;100415.44;;;10.31;100.00
4586;BME280;2305;50.118;8.952;2023-04-02T08:13:44;100425.72;;;10.34;100.00
4586;BME280;2305;50.118;8.952;2023-04-02T08:16:14;100428.00;;;10.38;100.00
4586;BME280;2305;50.118;8.952;2023-04-02T08:18:45;100426.56;;;10.45;100.00
4586;BME280;2305;50.118;8.952;2023-04-02T08:21:14;100434.94;;;10.50;100.00
4586;BME280;2305;50.118;8.952;2023-04-02T08:23:44;100444.63;;;10.61;100.00
4586;BME280;2305;50.118;8.952;2023-04-02T08:26:16;100448.34;;;10.69;100.00
4586;BME280;2305;50.118;8.952;2023-04-02T08:28:47;100453.22;;;10.74;100.00
4586;BME280;2305;50.118;8.952;2023-04-02T08:31:15;100448.28;;;10.80;100.00
4586;BME280;2305;50.118;8.952;2023-04-02T08:33:44;100455.13;;;10.83;100.00
4586;BME280;2305;50.118;8.952;2023-04-02T08:36:14;100472.13;;;10.79;100.00
4586;BME280;2305;50.118;8.952;2023-04-02T08:38:43;100474.53;;;10.82;100.00
4586;BME280;2305;50.118;8.952;2023-04-02T08:41:21;100482.34;;;10.83;100.00
4586;BME280;2305;50.118;8.952;2023-04-02T08:44:29;100475.34;;;10.82;100.00
4586;BME280;2305;50.118;8.952;2023-04-02T08:47:05;100488.06;;;10.88;100.00
4586;BME280;2305;50.118;8.952;2023-04-02T08:49:38;100493.09;;;10.91;100.00
4586;BME280;2305;50.118;8.952;2023-04-02T08:52:19;100506.28;;;10.91;100.00
4586;BME280;2305;50.118;8.952;2023-04-02T08:54:49;100507.59;;;10.86;100.00
4586;BME280;2305;50.118;8.952;2023-04-02T08:57:26;100513.38;;;10.80;100.00
4586;BME280;2305;50.118;8.952;2023-04-02T09:00:04;100519.94;;;10.85;100.00
4586;BME280;2305;50.118;8.952;2023-04-02T09:02:38;100527.09;;;10.94;100.00
4586;BME280;2305;50.118;8.952;2023-04-02T09:05:19;100532.88;;;10.99;100.00
4586;BME280;2305;50.118;8.952;2023-04-02T09:07:50;100538.13;;;10.99;100.00
4586;BME280;2305;50.118;8.952;2023-04-02T09:10:24;100537.28;;;10.99;100.00
4586;BME280;2305;50.118;8.952;2023-04-02T09:12:59;100541.09;;;11.06;100.00
4586;BME280;2305;50.118;8.952;2023-04-02T09:15:33;100557.03;;;11.04;100.00
4586;BME280;2305;50.118;8.952;2023-04-02T09:18:11;100550.47;;;10.99;100.00
4586;BME280;2305;50.118;8.952;2023-04-02T09:20:41;100554.66;;;11.01;100.00
4586;BME280;2305;50.118;8.952;2023-04-02T09:23:15;100562.31;;;11.04;100.00
4586;BME280;2305;50.118;8.952;2023-04-02T09:25:50;100564.72;;;11.07;100.00
4586;BME280;2305;50.118;8.952;2023-04-02T09:28:30;100566.03;;;11.13;100.00
4586;BME280;2305;50.118;8.952;2023-04-02T09:31:03;100570.72;;;11.09;100.00
4586;BME280;2305;50.118;8.952;2023-04-02T09:33:43;100583.31;;;11.17;100.00
4586;BME280;2305;50.118;8.952;2023-04-02T09:36:25;100584.84;;;11.08;100.00
4586;BME280;2305;50.118;8.952;2023-04-02T09:39:01;100589.06;;;11.11;100.00
4586;BME280;2305;50.118;8.952;2023-04-02T09:41:33;100593.47;;;11.10;100.00
4586;BME280;2305;50.118;8.952;2023-04-02T09:44:11;100603.09;;;11.00;100.00
4586;BME280;2305;50.118;8.952;2023-04-02T09:46:49;100602.38;;;10.98;100.00
4586;BME280;2305;50.118;8.952;2023-04-02T09:49:22;100611.81;;;11.01;100.00
4586;BME280;2305;50.118;8.952;2023-04-02T09:52:07;100618.56;;;11.16;100.00
4586;BME280;2305;50.118;8.952;2023-04-02T09:54:36;100616.13;;;11.24;100.00
4586;BME280;2305;50.118;8.952;2023-04-02T09:57:20;100625.09;;;11.32;100.00
4586;BME280;2305;50.118;8.952;2023-04-02T10:00:15;100626.44;;;11.27;100.00
4586;BME280;2305;50.118;8.952;2023-04-02T10:03:02;100634.00;;;11.20;100.00
4586;BME280;2305;50.118;8.952;2023-04-02T10:05:32;100631.13;;;10.90;100.00
4586;BME280;2305;50.118;8.952;2023-04-02T10:08:15;100643.13;;;10.94;100.00
4586;BME280;2305;50.118;8.952;2023-04-02T10:10:48;100653.31;;;10.88;100.00
4586;BME280;2305;50.118;8.952;2023-04-02T10:13:23;100658.06;;;10.61;100.00
4586;BME280;2305;50.118;8.952;2023-04-02T10:15:57;100666.56;;;10.64;100.00
4586;BME280;2305;50.118;8.952;2023-04-02T10:18:49;100675.78;;;10.59;100.00
4586;BME280;2305;50.118;8.952;2023-04-02T10:21:22;100680.81;;;10.62;100.00
4586;BME280;2305;50.118;8.952;2023-04-02T10:23:53;100683.19;;;10.65;100.00
4586;BME280;2305;50.118;8.952;2023-04-02T10:26:40;100684.75;;;10.56;100.00
4586;BME280;2305;50.118;8.952;2023-04-02T10:29:23;100693.63;;;10.55;100.00
4586;BME280;2305;50.118;8.952;2023-04-02T10:31:59;100690.50;;;10.61;100.00
4586;BME280;2305;50.118;8.952;2023-04-02T10:34:36;100704.63;;;10.60;100.00
4586;BME280;2305;50.118;8.952;2023-04-02T10:40:23;100720.78;;;10.45;100.00
4586;BME280;2305;50.118;8.952;2023-04-02T10:43:04;100715.59;;;10.43;100.00
4586;BME280;2305;50.118;8.952;2023-04-02T10:45:41;100722.09;;;10.50;100.00
4586;BME280;2305;50.118;8.952;2023-04-02T10:48:17;100728.19;;;10.51;100.00
4586;BME280;2305;50.118;8.952;2023-04-02T10:51:00;100731.13;;;10.59;100.00
4586;BME280;2305;50.118;8.952;2023-04-02T10:53:35;100723.94;;;10.61;100.00
4586;BME280;2305;50.118;8.952;2023-04-02T10:56:11;100723.69;;;10.64;100.00
4586;BME280;2305;50.118;8.952;2023-04-02T10:58:44;100735.69;;;10.68;100.00
4586;BME280;2305;50.118;8.952;2023-04-02T11:01:21;100739.91;;;10.70;100.00
4586;BME280;2305;50.118;8.952;2023-04-02T11:03:57;100745.28;;;10.69;100.00
4586;BME280;2305;50.118;8.952;2023-04-02T11:06:31;100741.69;;;10.70;100.00
4586;BME280;2305;50.118;8.952;2023-04-02T11:09:14;100751.59;;;10.66;100.00
4586;BME280;2305;50.118;8.952;2023-04-02T11:11:45;100751.50;;;10.68;100.00
4586;BME280;2305;50.118;8.952;2023-04-02T11:14:23;100760.53;;;10.76;100.00
4586;BME280;2305;50.118;8.952;2023-04-02T11:16:53;100756.78;;;10.79;100.00
4586;BME280;2305;50.118;8.952;2023-04-02T11:19:24;100767.56;;;10.76;100.00
4586;BME280;2305;50.118;8.952;2023-04-02T11:21:55;100766.97;;;10.72;100.00
4586;BME280;2305;50.118;8.952;2023-04-02T11:24:34;100778.06;;;10.65;100.00
4586;BME280;2305;50.118;8.952;2023-04-02T11:27:06;100777.25;;;10.64;100.00
4586;BME280;2305;50.118;8.952;2023-04-02T11:29:36;100778.03;;;10.54;100.00
4586;BME280;2305;50.118;8.952;2023-04-02T11:32:32;100787.00;;;10.51;100.00
4586;BME280;2305;50.118;8.952;2023-04-02T11:35:37;100790.81;;;10.47;100.00
4586;BME280;2305;50.118;8.952;2023-04-02T11:38:50;100792.19;;;10.53;100.00
4586;BME280;2305;50.118;8.952;2023-04-02T11:44:30;100808.09;;;10.51;100.00
4586;BME280;2305;50.118;8.952;2023-04-02T11:47:15;100811.56;;;10.52;100.00
4586;BME280;2305;50.118;8.952;2023-04-02T11:50:26;100819.13;;;10.56;100.00
4586;BME280;2305;50.118;8.952;2023-04-02T11:52:57;100817.56;;;10.54;100.00
4586;BME280;2305;50.118;8.952;2023-04-02T11:55:33;100826.28;;;10.54;100.00
4586;BME280;2305;50.118;8.952;2023-04-02T11:58:27;100833.28;;;10.55;100.00
4586;BME280;2305;50.118;8.952;2023-04-02T12:01:28;100833.88;;;10.59;100.00
4586;BME280;2305;50.118;8.952;2023-04-02T12:04:15;100838.56;;;10.66;100.00
4586;BME280;2305;50.118;8.952;2023-04-02T12:06:59;100850.34;;;10.73;100.00
4586;BME280;2305;50.118;8.952;2023-04-02T12:09:42;100842.44;;;10.73;100.00
4586;BME280;2305;50.118;8.952;2023-04-02T12:12:23;100851.22;;;10.74;100.00
4586;BME280;2305;50.118;8.952;2023-04-02T12:14:54;100858.38;;;10.72;100.00
4586;BME280;2305;50.118;8.952;2023-04-02T12:17:27;100864.94;;;10.66;100.00
4586;BME280;2305;50.118;8.952;2023-04-02T12:19:59;100868.00;;;10.60;100.00
4586;BME280;2305;50.118;8.952;2023-04-02T12:22:33;100867.28;;;10.58;100.00
4586;BME280;2305;50.118;8.952;2023-04-02T12:25:05;100873.00;;;10.52;100.00
4586;BME280;2305;50.118;8.952;2023-04-02T12:27:36;100875.13;;;10.47;100.00
4586;BME280;2305;50.118;8.952;2023-04-02T12:30:15;100883.78;;;10.49;100.00
4586;BME280;2305;50.118;8.952;2023-04-02T12:32:44;100884.59;;;10.50;100.00
4586;BME280;2305;50.118;8.952;2023-04-02T12:35:28;100890.91;;;10.60;100.00
4586;BME280;2305;50.118;8.952;2023-04-02T12:37:58;100898.69;;;10.61;100.00
4586;BME280;2305;50.118;8.952;2023-04-02T12:40:27;100899.00;;;10.57;100.00
4586;BME280;2305;50.118;8.952;2023-04-02T12:42:58;100899.00;;;10.57;100.00
4586;BME280;2305;50.118;8.952;2023-04-02T12:45:31;100900.59;;;10.59;100.00
4586;BME280;2305;50.118;8.952;2023-04-02T12:48:05;100903.47;;;10.56;100.00
4586;BME280;2305;50.118;8.952;2023-04-02T12:50:38;100907.06;;;10.55;100.00
4586;BME280;2305;50.118;8.952;2023-04-02T12:53:20;100915.38;;;10.49;100.00
4586;BME280;2305;50.118;8.952;2023-04-02T12:55:51;100912.22;;;10.44;100.00
4586;BME280;2305;50.118;8.952;2023-04-02T12:58:27;100930.28;;;10.38;100.00
4586;BME280;2305;50.118;8.952;2023-04-02T13:01:19;100930.81;;;10.30;100.00
4586;BME280;2305;50.118;8.952;2023-04-02T13:04:08;100929.56;;;10.23;100.00
4586;BME280;2305;50.118;8.952;2023-04-02T13:06:40;100932.91;;;10.25;100.00
4586;BME280;2305;50.118;8.952;2023-04-02T13:09:27;100930.91;;;10.29;100.00
4586;BME280;2305;50.118;8.952;2023-04-02T13:11:58;100938.63;;;10.32;100.00
4586;BME280;2305;50.118;8.952;2023-04-02T13:14:29;100943.88;;;10.32;100.00
4586;BME280;2305;50.118;8.952;2023-04-02T13:16:57;100946.53;;;10.32;100.00
4586;BME280;2305;50.118;8.952;2023-04-02T13:19:33;100948.53;;;10.28;100.00
4586;BME280;2305;50.118;8.952;2023-04-02T13:22:02;100953.47;;;10.33;100.00
4586;BME280;2305;50.118;8.952;2023-04-02T13:24:32;100954.75;;;10.27;100.00
4586;BME280;2305;50.118;8.952;2023-04-02T13:27:01;100953.69;;;10.17;100.00
4586;BME280;2305;50.118;8.952;2023-04-02T13:29:33;100961.19;;;10.11;100.00
4586;BME280;2305;50.118;8.952;2023-04-02T13:32:03;100958.75;;;10.08;100.00
4586;BME280;2305;50.118;8.952;2023-04-02T13:34:34;100968.00;;;9.88;100.00
4586;BME280;2305;50.118;8.952;2023-04-02T13:37:03;100979.06;;;9.81;100.00
4586;BME280;2305;50.118;8.952;2023-04-02T13:39:32;100981.88;;;9.78;100.00
4586;BME280;2305;50.118;8.952;2023-04-02T13:42:01;100987.25;;;9.76;100.00
4586;BME280;2305;50.118;8.952;2023-04-02T13:44:35;100984.59;;;9.64;100.00
4586;BME280;2305;50.118;8.952;2023-04-02T13:47:03;100996.16;;;9.61;100.00
4586;BME280;2305;50.118;8.952;2023-04-02T13:49:34;100990.81;;;9.63;100.00
4586;BME280;2305;50.118;8.952;2023-04-02T13:52:09;100985.84;;;9.58;100.00
4586;BME280;2305;50.118;8.952;2023-04-02T13:54:43;100995.31;;;9.48;100.00
4586;BME280;2305;50.118;8.952;2023-04-02T13:57:14;100999.50;;;9.51;100.00